createdAt,value
2019-03-10T00:00:37.471Z,76.70
2019-03-10T00:03:05.070Z,76.80
2019-03-10T00:05:32.676Z,76.90
2019-03-10T00:08:01.033Z,77.30
2019-03-10T00:10:28.615Z,77.20
2019-03-10T00:12:56.237Z,77.40
2019-03-10T00:15:23.825Z,77.60
2019-03-10T00:17:51.467Z,77.80
2019-03-10T00:20:19.049Z,78.30
2019-03-10T00:22:46.641Z,77.60
2019-03-10T00:25:15.011Z,77.90
2019-03-10T00:27:42.600Z,77.90
2019-03-10T00:30:10.195Z,78.00
2019-03-10T00:32:37.819Z,78.10
2019-03-10T00:35:05.408Z,78.20
2019-03-10T00:37:32.997Z,78.30
2019-03-10T00:40:03.285Z,78.50
2019-03-10T00:42:39.396Z,78.40
2019-03-10T00:45:28.015Z,78.50
2019-03-10T00:48:13.903Z,78.30
2019-03-10T00:51:06.482Z,78.40
2019-03-10T00:53:34.060Z,78.20
2019-03-10T00:56:02.404Z,78.20
2019-03-10T00:58:30.016Z,78.10
2019-03-10T01:00:57.604Z,77.90
2019-03-10T01:03:25.224Z,78.10
2019-03-10T01:05:52.806Z,78.10
2019-03-10T01:08:20.388Z,78.30
2019-03-10T01:10:47.998Z,78.40
2019-03-10T01:13:16.357Z,79.60
2019-03-10T01:15:44.042Z,78.90
2019-03-10T01:18:11.582Z,79.20
2019-03-10T01:20:39.173Z,79.40
2019-03-10T01:23:06.778Z,79.70
2019-03-10T01:25:34.369Z,79.70
2019-03-10T01:28:02.447Z,79.80
2019-03-10T01:30:30.041Z,80.00
2019-03-10T01:33:00.379Z,80.20
2019-03-10T01:35:28.090Z,80.80
2019-03-10T01:37:55.667Z,80.20
2019-03-10T01:40:23.308Z,80.20
2019-03-10T01:42:50.857Z,80.60
2019-03-10T01:45:18.438Z,80.90
2019-03-10T01:47:46.050Z,81.40
2019-03-10T01:50:13.635Z,81.90
2019-03-10T01:52:41.248Z,82.40
2019-03-10T01:55:09.602Z,83.60
2019-03-10T01:57:37.199Z,83.50
2019-03-10T02:00:04.807Z,84.00
2019-03-10T02:02:32.385Z,85.20
2019-03-10T02:05:00.381Z,84.50
2019-03-10T02:07:27.955Z,84.60
2019-03-10T02:09:56.306Z,85.20
2019-03-10T02:12:23.909Z,85.10
2019-03-10T02:14:51.495Z,85.40
2019-03-10T02:17:19.160Z,85.40
2019-03-10T02:19:50.294Z,86.50
2019-03-10T02:22:17.869Z,85.80
2019-03-10T02:24:45.468Z,86.10
2019-03-10T02:27:13.049Z,86.50
2019-03-10T02:29:41.439Z,87.40
2019-03-10T02:32:09.024Z,87.40
2019-03-10T02:34:36.605Z,87.70
2019-03-10T02:37:04.218Z,88.30
2019-03-10T02:39:32.569Z,89.50
2019-03-10T02:42:00.198Z,89.50
2019-03-10T02:44:27.772Z,90.00
2019-03-10T02:46:55.350Z,90.20
2019-03-10T02:49:22.959Z,90.40
2019-03-10T02:51:50.603Z,90.70
2019-03-10T02:54:18.151Z,91.50
2019-03-10T02:56:45.733Z,91.10
2019-03-10T02:59:14.079Z,91.40
2019-03-10T03:01:41.687Z,91.40
2019-03-10T03:04:09.280Z,91.70
2019-03-10T03:06:36.853Z,91.70
2019-03-10T03:09:04.459Z,92.00
2019-03-10T03:11:32.800Z,92.50
2019-03-10T03:14:00.374Z,92.50
2019-03-10T03:16:27.984Z,92.60
2019-03-10T03:18:55.564Z,92.80
2019-03-10T03:21:23.174Z,92.80
2019-03-10T03:23:52.122Z,93.00
2019-03-10T03:26:19.699Z,92.90
2019-03-10T03:28:47.278Z,93.10
2019-03-10T03:31:14.893Z,93.20
2019-03-10T03:33:42.470Z,93.20
2019-03-10T03:36:13.149Z,93.20
2019-03-10T03:38:44.219Z,93.50
2019-03-10T03:41:14.542Z,93.20
2019-03-10T03:43:42.152Z,93.20
2019-03-10T03:46:09.721Z,93.20
2019-03-10T03:48:37.327Z,93.30
2019-03-10T03:51:04.917Z,93.40
2019-03-10T03:53:32.476Z,93.90
2019-03-10T03:56:00.495Z,93.60
2019-03-10T03:58:28.032Z,93.50
2019-03-10T04:01:04.687Z,93.60
2019-03-10T04:03:32.863Z,93.70
2019-03-10T04:06:00.444Z,93.90
2019-03-10T04:08:28.051Z,94.00
2019-03-10T04:10:55.665Z,94.20
2019-03-10T04:13:23.282Z,94.80
2019-03-10T04:15:50.849Z,94.60
2019-03-10T04:18:18.429Z,94.10
2019-03-10T04:20:46.064Z,94.10
2019-03-10T04:23:13.628Z,94.20
2019-03-10T04:25:41.520Z,94.20
2019-03-10T04:28:09.100Z,94.30
2019-03-10T04:30:36.674Z,94.30
2019-03-10T04:33:04.279Z,94.50
2019-03-10T04:35:31.923Z,95.00
2019-03-10T04:37:59.865Z,94.80
2019-03-10T04:40:27.456Z,94.90
2019-03-10T04:42:55.808Z,95.10
2019-03-10T04:45:23.412Z,95.00
2019-03-10T04:47:51.012Z,95.10
2019-03-10T04:50:18.603Z,95.70
2019-03-10T04:52:46.179Z,95.30
2019-03-10T04:55:20.498Z,95.40
2019-03-10T04:58:03.091Z,95.40
2019-03-10T05:00:30.686Z,95.50
2019-03-10T05:02:58.310Z,95.60
2019-03-10T05:05:25.884Z,95.70
2019-03-10T05:07:53.470Z,95.90
2019-03-10T05:10:21.078Z,96.50
2019-03-10T05:12:48.652Z,96.10
2019-03-10T05:15:16.624Z,96.10
2019-03-10T05:17:44.212Z,96.00
2019-03-10T05:20:11.780Z,96.00
2019-03-10T05:22:40.139Z,96.10
2019-03-10T05:25:10.501Z,96.00
2019-03-10T05:27:38.104Z,96.30
2019-03-10T05:30:05.687Z,96.10
2019-03-10T05:32:33.565Z,95.60
2019-03-10T05:35:01.910Z,95.80
2019-03-10T05:37:29.482Z,95.80
2019-03-10T05:39:57.092Z,95.90
2019-03-10T05:42:24.673Z,96.10
2019-03-10T05:44:52.289Z,96.30
2019-03-10T05:47:20.931Z,96.40
2019-03-10T05:49:48.550Z,96.60
2019-03-10T05:52:16.109Z,96.60
2019-03-10T05:54:43.695Z,96.70
2019-03-10T05:57:11.593Z,96.80
2019-03-10T05:59:39.184Z,97.00
2019-03-10T06:02:06.792Z,97.20
2019-03-10T06:04:34.397Z,97.60
2019-03-10T06:07:01.973Z,97.80
2019-03-10T06:09:29.603Z,98.80
2019-03-10T06:11:57.182Z,98.30
2019-03-10T06:14:24.760Z,98.20
2019-03-10T06:16:52.365Z,98.30
2019-03-10T06:19:19.942Z,98.30
2019-03-10T06:21:47.562Z,98.40
2019-03-10T06:24:15.908Z,98.40
2019-03-10T06:26:43.487Z,98.40
2019-03-10T06:29:11.092Z,98.20
2019-03-10T06:31:38.685Z,98.10
2019-03-10T06:34:06.304Z,98.10
2019-03-10T06:36:33.948Z,98.00
2019-03-10T06:39:01.837Z,98.30
2019-03-10T06:41:29.412Z,97.70
2019-03-10T06:43:57.013Z,97.60
2019-03-10T06:46:24.662Z,97.50
2019-03-10T06:48:52.258Z,97.40
2019-03-10T06:51:19.842Z,97.40
2019-03-10T06:53:47.464Z,97.30
2019-03-10T06:56:15.069Z,97.30
2019-03-10T06:58:42.694Z,97.30
2019-03-10T07:01:10.271Z,97.30
2019-03-10T07:03:37.876Z,97.20
2019-03-10T07:06:05.507Z,97.30
2019-03-10T07:08:33.093Z,97.20
2019-03-10T07:11:00.743Z,97.10
2019-03-10T07:13:28.358Z,97.10
2019-03-10T07:15:55.980Z,97.10
2019-03-10T07:18:23.611Z,97.00
2019-03-10T07:20:51.205Z,96.90
2019-03-10T07:23:19.239Z,96.80
2019-03-10T07:25:46.833Z,96.80
2019-03-10T07:28:20.296Z,96.80
2019-03-10T07:30:56.634Z,96.60
2019-03-10T07:33:29.806Z,96.60
2019-03-10T07:35:57.452Z,96.40
2019-03-10T07:38:27.981Z,96.40
2019-03-10T07:40:55.611Z,96.40
2019-03-10T07:43:38.110Z,96.10
2019-03-10T07:46:11.378Z,95.90
2019-03-10T07:48:38.964Z,95.90
2019-03-10T07:51:09.002Z,95.90
2019-03-10T07:53:49.118Z,95.90
2019-03-10T07:56:16.722Z,95.80
2019-03-10T07:58:50.171Z,95.70
2019-03-10T08:01:20.246Z,95.70
2019-03-10T08:04:00.495Z,95.70
2019-03-10T08:06:46.073Z,95.70
2019-03-10T08:09:19.579Z,95.70
2019-03-10T08:11:49.957Z,96.00
2019-03-10T08:14:21.176Z,95.30
2019-03-10T08:17:07.276Z,95.30
2019-03-10T08:19:34.898Z,95.10
2019-03-10T08:22:20.596Z,94.60
2019-03-10T08:24:58.316Z,94.60
2019-03-10T08:27:28.598Z,94.30
2019-03-10T08:29:58.778Z,94.60
2019-03-10T08:32:35.179Z,94.80
2019-03-10T08:35:02.793Z,94.60
2019-03-10T08:37:39.080Z,94.70
2019-03-10T08:40:19.135Z,94.20
2019-03-10T08:42:46.793Z,94.20
2019-03-10T08:45:17.656Z,94.00
2019-03-10T08:47:45.231Z,93.80
2019-03-10T08:50:30.427Z,93.90
2019-03-10T08:53:06.934Z,93.90
2019-03-10T08:55:52.848Z,93.90
2019-03-10T08:58:26.257Z,93.90
2019-03-10T09:00:53.866Z,93.40
2019-03-10T09:03:22.281Z,92.90
2019-03-10T09:06:01.869Z,92.90
2019-03-10T09:08:38.168Z,92.70
2019-03-10T09:11:14.599Z,92.10
2019-03-10T09:13:44.763Z,91.70
2019-03-10T09:16:29.971Z,91.70
2019-03-10T09:19:00.025Z,91.40
2019-03-10T09:21:33.122Z,90.90
2019-03-10T09:24:18.714Z,90.70
2019-03-10T09:27:05.003Z,90.40
2019-03-10T09:29:51.592Z,89.00
2019-03-10T09:32:21.719Z,89.50
2019-03-10T09:34:55.438Z,89.70
2019-03-10T09:37:31.816Z,90.50
2019-03-10T09:40:02.386Z,90.90
2019-03-10T09:42:41.982Z,90.60
2019-03-10T09:45:20.397Z,90.60
2019-03-10T09:47:58.199Z,90.60
2019-03-10T09:50:35.206Z,90.30
2019-03-10T09:53:05.346Z,90.20
2019-03-10T09:55:32.954Z,90.10
2019-03-10T09:58:00.587Z,90.30
2019-03-10T10:00:28.219Z,90.10
2019-03-10T10:02:58.521Z,90.10
2019-03-10T10:05:35.713Z,89.70
2019-03-10T10:08:22.230Z,89.90
2019-03-10T10:11:08.176Z,89.80
2019-03-10T10:13:35.759Z,89.50
2019-03-10T10:16:09.905Z,88.70
2019-03-10T10:18:43.109Z,88.00
2019-03-10T10:21:17.645Z,86.10
2019-03-10T10:23:45.554Z,82.70
2019-03-10T10:26:16.475Z,81.90
2019-03-10T10:28:47.343Z,80.50
2019-03-10T10:31:17.752Z,79.70
2019-03-10T10:33:47.924Z,79.00
2019-03-10T10:36:15.551Z,78.90
2019-03-10T10:38:45.886Z,78.70
2019-03-10T10:41:23.096Z,78.60
2019-03-10T10:43:50.714Z,78.60
2019-03-10T10:49:02.844Z,78.10
2019-03-10T10:51:42.625Z,78.00
2019-03-10T10:54:11.030Z,77.60
2019-03-10T10:56:41.393Z,77.50
2019-03-10T10:59:18.324Z,77.10
2019-03-10T11:01:51.719Z,76.60
2019-03-10T11:04:19.335Z,76.80
2019-03-10T11:06:47.027Z,76.00
2019-03-10T11:09:23.303Z,75.80
2019-03-10T11:12:00.399Z,76.30
2019-03-10T11:14:30.823Z,75.80
2019-03-10T11:17:16.616Z,74.00
2019-03-10T11:19:44.193Z,74.50
2019-03-10T11:22:13.223Z,74.00
2019-03-10T11:24:40.837Z,72.80
2019-03-10T11:27:14.214Z,71.70
2019-03-10T11:29:47.758Z,72.20
2019-03-10T11:32:23.668Z,71.30
2019-03-10T11:35:00.346Z,70.70
2019-03-10T11:37:39.413Z,69.60
2019-03-10T11:40:22.225Z,68.80
2019-03-10T11:43:08.787Z,68.30
2019-03-10T11:45:55.164Z,65.50
2019-03-10T11:48:26.013Z,65.40
2019-03-10T11:51:11.790Z,65.30
2019-03-10T11:53:48.131Z,64.00
2019-03-10T11:56:18.772Z,62.90
2019-03-10T11:58:55.359Z,62.10
2019-03-10T12:01:31.668Z,62.50
2019-03-10T12:04:17.463Z,62.20
2019-03-10T12:06:50.956Z,61.80
2019-03-10T12:09:19.053Z,60.90
2019-03-10T12:11:48.171Z,61.70
2019-03-10T12:14:15.837Z,61.80
2019-03-10T12:16:44.116Z,59.30
2019-03-10T12:19:12.005Z,58.80
2019-03-10T12:21:39.709Z,58.50
2019-03-10T12:24:07.495Z,59.60
2019-03-10T12:26:35.330Z,59.60
2019-03-10T12:29:02.955Z,59.60
2019-03-10T12:31:30.577Z,57.80
2019-03-10T12:33:58.423Z,58.00
2019-03-10T12:36:26.995Z,56.90
2019-03-10T12:38:54.644Z,56.80
2019-03-10T12:41:22.335Z,56.40
2019-03-10T12:43:50.756Z,56.50
2019-03-10T12:46:18.381Z,56.50
2019-03-10T12:48:46.746Z,58.00
2019-03-10T12:51:14.329Z,57.90
2019-03-10T12:53:41.938Z,57.90
2019-03-10T12:56:09.798Z,57.20
2019-03-10T12:58:37.430Z,56.40
2019-03-10T13:01:06.739Z,57.00
2019-03-10T13:03:33.246Z,57.10
2019-03-10T13:06:00.771Z,55.90
2019-03-10T13:08:28.383Z,55.90
2019-03-10T13:10:57.770Z,55.50
2019-03-10T13:13:28.842Z,55.60
2019-03-10T13:15:57.591Z,55.90
2019-03-10T13:18:25.120Z,55.30
2019-03-10T13:20:52.792Z,52.50
2019-03-10T13:23:20.852Z,53.20
2019-03-10T13:25:48.446Z,53.60
2019-03-10T13:28:16.022Z,53.90
2019-03-10T13:30:43.635Z,52.90
2019-03-10T13:33:11.219Z,53.10
2019-03-10T13:35:38.849Z,50.90
2019-03-10T13:38:06.446Z,51.10
2019-03-10T13:40:34.030Z,51.40
2019-03-10T13:43:04.514Z,51.60
2019-03-10T13:45:32.142Z,51.60
2019-03-10T13:47:59.744Z,51.90
2019-03-10T13:50:27.328Z,51.90
2019-03-10T13:52:55.011Z,52.50
2019-03-10T13:55:22.788Z,52.70
2019-03-10T13:57:51.126Z,50.90
2019-03-10T14:00:26.977Z,50.90
2019-03-10T14:02:54.526Z,50.40
2019-03-10T14:05:22.122Z,49.90
2019-03-10T14:07:49.725Z,49.80
2019-03-10T14:10:17.307Z,49.90
2019-03-10T14:12:44.970Z,48.60
2019-03-10T14:15:13.706Z,48.70
2019-03-10T14:17:41.312Z,49.00
2019-03-10T14:20:08.915Z,49.70
2019-03-10T14:22:36.509Z,50.50
2019-03-10T14:25:04.894Z,50.00
2019-03-10T14:27:32.469Z,49.90
2019-03-10T14:30:00.057Z,49.40
2019-03-10T14:32:27.660Z,47.70
2019-03-10T14:34:55.429Z,48.40
2019-03-10T14:37:23.149Z,49.20
2019-03-10T14:39:50.832Z,48.80
2019-03-10T14:42:18.405Z,47.40
2019-03-10T14:44:46.440Z,47.20
2019-03-10T14:47:14.021Z,46.90
2019-03-10T14:49:42.759Z,46.70
2019-03-10T14:52:10.351Z,46.20
2019-03-10T14:54:37.927Z,47.20
2019-03-10T14:57:05.567Z,47.60
2019-03-10T14:59:33.146Z,48.60
2019-03-10T15:02:02.166Z,49.50
2019-03-10T15:04:29.740Z,50.20
2019-03-10T15:06:57.319Z,50.80
2019-03-10T15:09:25.716Z,51.90
2019-03-10T15:14:41.395Z,52.50
2019-03-10T15:20:05.461Z,52.40
2019-03-10T15:22:34.187Z,52.90
2019-03-10T15:25:05.371Z,56.30
2019-03-10T15:27:33.052Z,56.20
2019-03-10T15:30:00.608Z,57.50
2019-03-10T15:32:28.232Z,59.00
2019-03-10T15:34:55.817Z,59.40
2019-03-10T15:37:23.403Z,59.80
2019-03-10T15:39:51.192Z,59.90
2019-03-10T15:42:19.657Z,59.60
2019-03-10T15:44:47.337Z,60.10
2019-03-10T15:47:14.903Z,60.20
2019-03-10T15:49:43.258Z,59.70
2019-03-10T15:52:11.994Z,59.70
2019-03-10T15:54:40.166Z,59.90
2019-03-10T15:57:08.170Z,59.80
2019-03-10T15:59:35.784Z,59.30
2019-03-10T16:02:03.500Z,59.00
2019-03-10T16:04:31.152Z,59.00
2019-03-10T16:06:59.513Z,58.70
2019-03-10T16:09:27.133Z,58.50
2019-03-10T16:11:54.763Z,59.60
2019-03-10T16:14:22.340Z,61.10
2019-03-10T16:16:50.005Z,62.10
2019-03-10T16:19:17.556Z,62.70
2019-03-10T16:21:45.886Z,62.80
2019-03-10T16:24:13.654Z,62.50
2019-03-10T16:26:41.246Z,63.10
2019-03-10T16:29:09.109Z,63.60
2019-03-10T16:31:36.539Z,64.00
2019-03-10T16:34:04.207Z,63.40
2019-03-10T16:36:31.799Z,63.30
2019-03-10T16:38:59.461Z,62.10
2019-03-10T16:41:27.118Z,61.90
2019-03-10T16:43:54.716Z,61.10
2019-03-10T16:46:22.443Z,59.70
2019-03-10T16:48:50.088Z,58.40
2019-03-10T16:51:17.726Z,58.20
2019-03-10T16:53:45.310Z,58.60
2019-03-10T16:56:13.688Z,58.10
2019-03-10T16:58:41.308Z,58.00
2019-03-10T17:01:09.214Z,57.90
2019-03-10T17:03:36.825Z,57.70
2019-03-10T17:06:04.515Z,57.90
2019-03-10T17:08:32.118Z,58.10
2019-03-10T17:10:59.747Z,58.40
2019-03-10T17:13:27.500Z,58.70
2019-03-10T17:15:55.140Z,59.10
2019-03-10T17:18:22.751Z,58.90
2019-03-10T17:20:50.334Z,59.20
2019-03-10T17:23:18.068Z,59.30
2019-03-10T17:25:45.625Z,59.30
2019-03-10T17:28:13.228Z,59.20
2019-03-10T17:30:40.983Z,57.40
2019-03-10T17:33:08.549Z,57.30
2019-03-10T17:35:37.051Z,57.10
2019-03-10T17:38:04.630Z,57.00
2019-03-10T17:40:32.163Z,56.90
2019-03-10T17:43:07.739Z,57.00
2019-03-10T17:48:44.184Z,56.90
2019-03-10T17:51:11.768Z,57.20
2019-03-10T17:53:41.732Z,56.90
2019-03-10T17:56:07.033Z,56.70
2019-03-10T17:58:34.712Z,56.80
2019-03-10T18:01:02.646Z,56.90
2019-03-10T18:03:30.245Z,57.00
2019-03-10T18:05:57.839Z,57.10
2019-03-10T18:08:25.451Z,57.30
2019-03-10T18:10:53.026Z,57.60
2019-03-10T18:13:20.662Z,58.00
2019-03-10T18:15:48.267Z,58.70
2019-03-10T18:18:16.617Z,60.00
2019-03-10T18:20:44.215Z,60.00
2019-03-10T18:23:12.617Z,60.60
2019-03-10T18:25:40.712Z,60.50
2019-03-10T18:28:08.299Z,60.80
2019-03-10T18:30:35.899Z,61.10
2019-03-10T18:33:03.533Z,61.40
2019-03-10T18:35:31.106Z,61.60
2019-03-10T18:38:00.478Z,60.90
2019-03-10T18:40:28.039Z,60.90
2019-03-10T18:42:55.647Z,60.20
2019-03-10T18:45:23.316Z,59.30
2019-03-10T18:47:50.902Z,57.70
2019-03-10T18:50:18.551Z,57.50
2019-03-10T18:52:46.171Z,56.40
2019-03-10T18:55:13.759Z,56.40
2019-03-10T18:57:41.335Z,56.60
2019-03-10T19:00:11.944Z,57.00
2019-03-10T19:02:39.488Z,57.80
2019-03-10T19:05:07.123Z,58.40
2019-03-10T19:07:34.718Z,58.80
2019-03-10T19:10:02.347Z,59.10
2019-03-10T19:12:29.930Z,59.40
2019-03-10T19:14:57.519Z,59.50
2019-03-10T19:17:25.183Z,59.70
2019-03-10T19:19:53.548Z,60.10
2019-03-10T19:22:21.191Z,60.10
2019-03-10T19:24:49.558Z,60.00
2019-03-10T19:27:17.138Z,59.70
2019-03-10T19:29:44.794Z,60.00
2019-03-10T19:32:12.398Z,60.20
2019-03-10T19:34:41.131Z,60.40
2019-03-10T19:37:08.714Z,60.10
2019-03-10T19:39:36.278Z,59.80
2019-03-10T19:42:03.918Z,59.90
2019-03-10T19:44:31.473Z,60.00
2019-03-10T19:46:59.180Z,60.20
2019-03-10T19:49:26.802Z,60.50
2019-03-10T19:51:54.384Z,60.70
2019-03-10T19:54:22.048Z,61.00
2019-03-10T19:56:49.620Z,61.40
2019-03-10T19:59:17.577Z,62.00
2019-03-10T20:01:45.156Z,62.50
2019-03-10T20:04:13.510Z,61.90
2019-03-10T20:06:41.118Z,61.90
2019-03-10T20:09:08.691Z,61.60
2019-03-10T20:11:36.316Z,61.70
2019-03-10T20:14:04.027Z,61.60
2019-03-10T20:16:31.930Z,61.70
2019-03-10T20:19:05.410Z,61.80
2019-03-10T20:21:33.001Z,62.00
2019-03-10T20:24:00.652Z,62.30
2019-03-10T20:26:28.249Z,62.50
2019-03-10T20:28:56.609Z,63.00
2019-03-10T20:31:24.236Z,63.00
2019-03-10T20:33:52.532Z,63.10
2019-03-10T20:36:19.513Z,63.20
2019-03-10T20:38:47.079Z,63.00
2019-03-10T20:41:15.441Z,62.10
2019-03-10T20:43:43.056Z,62.00
2019-03-10T20:46:10.648Z,61.90
2019-03-10T20:48:38.272Z,62.40
2019-03-10T20:51:05.867Z,62.10
2019-03-10T20:53:33.449Z,62.30
2019-03-10T20:56:01.088Z,62.40
2019-03-10T20:58:28.668Z,62.50
2019-03-10T21:00:56.283Z,62.70
2019-03-10T21:03:23.872Z,62.90
2019-03-10T21:05:51.515Z,63.40
2019-03-10T21:08:19.105Z,63.00
2019-03-10T21:10:46.676Z,62.90
2019-03-10T21:13:14.286Z,63.20
2019-03-10T21:15:41.861Z,63.50
2019-03-10T21:18:09.544Z,63.60
2019-03-10T21:20:37.125Z,63.90
2019-03-10T21:23:04.708Z,64.00
2019-03-10T21:25:32.332Z,64.20
2019-03-10T21:28:00.230Z,64.00
2019-03-10T21:30:30.889Z,64.10
2019-03-10T21:32:59.275Z,64.20
2019-03-10T21:35:26.868Z,64.10
2019-03-10T21:37:54.453Z,64.40
2019-03-10T21:40:30.759Z,64.50
2019-03-10T21:42:58.458Z,64.60
2019-03-10T21:45:26.025Z,64.70
2019-03-10T21:47:53.653Z,64.40
2019-03-10T21:50:21.230Z,64.20
2019-03-10T21:52:48.811Z,64.20
2019-03-10T21:55:16.433Z,64.30
2019-03-10T21:57:44.005Z,64.50
2019-03-10T22:00:11.589Z,64.50
2019-03-10T22:02:39.926Z,64.60
2019-03-10T22:05:08.289Z,65.00
2019-03-10T22:07:36.120Z,64.90
2019-03-10T22:10:03.728Z,65.00
2019-03-10T22:12:32.072Z,65.50
2019-03-10T22:14:59.697Z,64.90
2019-03-10T22:17:27.272Z,64.90
2019-03-10T22:19:54.845Z,65.70
2019-03-10T22:22:22.448Z,65.10
2019-03-10T22:24:50.796Z,65.40
2019-03-10T22:27:18.792Z,65.40
2019-03-10T22:29:46.370Z,65.60
2019-03-10T22:32:14.710Z,65.50
2019-03-10T22:34:42.323Z,65.40
2019-03-10T22:37:10.668Z,65.60
2019-03-10T22:39:38.261Z,65.50
2019-03-10T22:42:05.845Z,65.70
2019-03-10T22:44:33.427Z,65.80
2019-03-10T22:47:01.029Z,65.90
2019-03-10T22:49:29.674Z,66.20
2019-03-10T22:51:57.295Z,66.10
2019-03-10T22:54:24.870Z,66.30
2019-03-10T22:56:52.442Z,66.50
2019-03-10T22:59:20.058Z,66.60
2019-03-10T23:01:47.641Z,66.60
2019-03-10T23:04:15.244Z,66.70
2019-03-10T23:06:42.825Z,66.80
2019-03-10T23:09:10.496Z,66.90
2019-03-10T23:11:38.074Z,67.00
2019-03-10T23:14:06.422Z,67.20
2019-03-10T23:16:34.028Z,67.00
2019-03-10T23:19:02.370Z,66.40
2019-03-10T23:21:29.980Z,66.30
2019-03-10T23:23:57.568Z,66.40
2019-03-10T23:26:25.152Z,66.90
2019-03-10T23:28:52.753Z,66.80
2019-03-10T23:31:21.094Z,66.60
2019-03-10T23:33:48.698Z,66.50
2019-03-10T23:36:17.039Z,67.40
2019-03-10T23:38:44.617Z,67.20
2019-03-10T23:41:12.236Z,67.00
2019-03-10T23:43:39.815Z,67.00
2019-03-10T23:46:07.436Z,67.20
2019-03-10T23:48:35.018Z,67.20
2019-03-10T23:51:02.614Z,67.40
2019-03-10T23:53:30.217Z,67.50
2019-03-10T23:55:57.795Z,67.50
2019-03-10T23:58:25.509Z,67.50
